Time;durP1;ratioP1;P1;durP2;ratioP2;P2;SDS_P1;SDS_P2;PMS_P1;PMS_P2;Temp;Humidity;BMP_temperature;BMP_pressure;BME280_temperature;BME280_humidity;BME280_pressure;Samples;Min_cycle;Max_cycle;Signal;HPM_P1;HPM_P2
2021/05/11 00:00:50;;;;;;;16.40;7.60;;;;;;;32.15;26.79;159632.48;1607458;89;21418;-86
2021/05/11 00:03:23;;;;;;;11.88;6.40;;;;;;;32.12;26.79;159624.47;1607414;89;21203;-87
2021/05/11 00:05:55;;;;;;;10.95;5.60;;;;;;;32.10;26.67;159619.17;1607433;89;21207;-87
2021/05/11 00:08:28;;;;;;;9.90;4.75;;;;;;;32.06;26.56;159608.44;1607674;89;21356;-87
2021/05/11 00:11:00;;;;;;;9.15;4.55;;;;;;;32.11;26.42;159621.84;1607353;89;21342;-86
2021/05/11 00:13:32;;;;;;;8.50;4.62;;;;;;;32.12;26.31;159624.47;1607470;89;21244;-86
2021/05/11 00:16:05;;;;;;;8.98;5.03;;;;;;;32.20;26.21;159645.84;1607667;88;21283;-86
2021/05/11 00:18:38;;;;;;;9.75;4.65;;;;;;;32.21;26.20;159647.16;1607385;89;21303;-86
2021/05/11 00:21:11;;;;;;;8.53;4.60;;;;;;;32.24;26.24;159657.86;1629434;88;21242;-87
2021/05/11 00:23:44;;;;;;;7.87;4.35;;;;;;;32.27;26.27;159665.88;1634797;87;21232;-87
2021/05/11 00:26:17;;;;;;;8.33;4.87;;;;;;;32.26;26.38;159663.20;1634879;86;21211;-87
2021/05/11 00:28:49;;;;;;;8.10;4.95;;;;;;;32.25;26.73;159660.53;1609446;88;21298;-86
2021/05/11 00:31:21;;;;;;;8.53;4.83;;;;;;;32.15;26.94;159631.17;1607332;89;21734;-86
2021/05/11 00:33:55;;;;;;;9.70;5.37;;;;;;;31.98;27.21;159585.73;1607309;88;21266;-86
2021/05/11 00:36:27;;;;;;;9.78;5.67;;;;;;;31.86;27.41;159553.72;1607515;88;21204;-85
2021/05/11 00:39:00;;;;;;;8.90;4.72;;;;;;;31.79;27.48;159535.06;1607423;89;21275;-86
2021/05/11 00:41:33;;;;;;;6.92;5.08;;;;;;;31.68;27.53;159507.03;1607386;89;21247;-85
2021/05/11 00:44:09;;;;;;;8.93;5.22;;;;;;;31.61;27.58;159488.38;1607176;88;21295;-85
2021/05/11 00:46:41;;;;;;;9.15;4.80;;;;;;;31.54;27.65;159469.63;1586493;88;21236;-86
2021/05/11 00:49:13;;;;;;;7.55;4.37;;;;;;;31.51;27.73;159460.30;1607497;88;21240;-86
2021/05/11 00:51:46;;;;;;;6.33;4.25;;;;;;;31.42;27.89;159437.61;1607500;89;21208;-86
2021/05/11 00:54:18;;;;;;;6.37;4.05;;;;;;;31.38;27.98;159426.98;1607414;89;21299;-86
2021/05/11 00:56:50;;;;;;;8.85;4.62;;;;;;;31.31;27.99;159408.28;1607387;88;21248;-87
2021/05/11 00:59:26;;;;;;;6.92;4.25;;;;;;;31.27;27.92;159396.28;1607380;89;21243;-87
2021/05/11 01:01:59;;;;;;;6.85;3.80;;;;;;;31.19;27.81;159374.97;1607400;89;21397;-87
2021/05/11 01:04:32;;;;;;;5.90;3.77;;;;;;;31.15;27.64;159364.28;1607352;88;21279;-87
2021/05/11 01:07:05;;;;;;;5.40;3.65;;;;;;;31.13;27.56;159359.00;1592564;89;21212;-87
2021/05/11 01:09:37;;;;;;;5.50;3.55;;;;;;;31.09;27.46;159348.31;1607390;89;21811;-87
2021/05/11 01:12:09;;;;;;;7.08;3.77;;;;;;;31.14;27.35;159361.61;1607484;89;21247;-87
2021/05/11 01:14:41;;;;;;;8.38;4.20;;;;;;;31.16;27.29;159366.95;1609069;87;21203;-87
2021/05/11 01:17:21;;;;;;;8.65;3.67;;;;;;;31.13;27.28;159359.00;1597701;88;21747;-87
2021/05/11 01:20:01;;;;;;;8.40;4.15;;;;;;;31.12;27.32;159356.31;1607345;89;21235;-86
2021/05/11 01:22:49;;;;;;;6.45;3.67;;;;;;;31.15;27.32;159362.97;1607349;88;21235;-85
2021/05/11 01:25:27;;;;;;;14.03;5.13;;;;;;;31.20;27.31;159376.28;1607511;88;21192;-84
2021/05/11 01:50:16;;;;;;;6.53;4.20;;;;;;;31.24;27.11;159388.33;1591463;88;21227;-86
2021/05/11 01:52:55;;;;;;;8.28;4.65;;;;;;;31.27;27.04;159396.28;1621125;87;21386;-86
2021/05/11 02:18:28;;;;;;;5.45;3.70;;;;;;;31.47;26.60;159449.66;1619544;88;21405;-87
2021/05/11 02:23:37;;;;;;;6.65;3.83;;;;;;;31.34;26.99;159414.98;1619163;88;21437;-87
2021/05/11 02:26:10;;;;;;;7.10;4.15;;;;;;;31.25;27.10;159389.63;1619031;87;21366;-87
2021/05/11 02:28:42;;;;;;;7.30;3.90;;;;;;;31.20;27.15;159376.28;1619565;88;22037;-87
2021/05/11 02:31:14;;;;;;;7.58;3.65;;;;;;;31.14;27.17;159361.61;1619422;88;21398;-88
2021/05/11 02:33:47;;;;;;;5.87;3.90;;;;;;;31.13;27.14;159359.00;1619223;88;21346;-87
2021/05/11 02:36:19;;;;;;;8.13;4.22;;;;;;;31.06;27.23;159340.30;1619038;87;21931;-87
2021/05/11 02:38:51;;;;;;;7.25;4.33;;;;;;;31.00;27.25;159322.91;1584341;88;21232;-87
2021/05/11 02:41:24;;;;;;;8.45;4.55;;;;;;;30.99;27.31;159320.23;1617001;88;21838;-87
2021/05/11 02:43:57;;;;;;;8.23;4.55;;;;;;;30.96;27.33;159313.59;1619256;88;21382;-87
2021/05/11 02:46:29;;;;;;;7.55;4.33;;;;;;;30.96;27.41;159313.59;1619189;88;21426;-87
2021/05/11 02:49:02;;;;;;;9.63;4.60;;;;;;;30.95;27.46;159310.91;1619464;88;21641;-87
2021/05/11 02:51:34;;;;;;;8.38;3.75;;;;;;;31.03;27.46;159330.97;1619170;88;21342;-87
2021/05/11 02:54:07;;;;;;;10.45;4.15;;;;;;;31.02;27.51;159329.56;1619235;88;21350;-87
2021/05/11 02:56:40;;;;;;;7.50;4.20;;;;;;;30.97;27.57;159316.25;1618978;88;22494;-87
2021/05/11 02:59:12;;;;;;;7.90;3.90;;;;;;;30.97;27.61;159316.25;1619240;88;21858;-87
2021/05/11 03:01:44;;;;;;;7.92;4.55;;;;;;;30.95;27.65;159310.91;1618994;88;21287;-87
2021/05/11 03:04:17;;;;;;;7.12;4.42;;;;;;;30.97;27.76;159314.89;1613298;88;21401;-87
2021/05/11 03:06:56;;;;;;;6.72;3.75;;;;;;;30.99;27.83;159321.59;1605752;88;21308;-87
2021/05/11 03:09:25;;;;;;;8.85;4.58;;;;;;;31.04;27.87;159333.64;1619309;88;21724;-87
2021/05/11 03:11:58;;;;;;;12.58;5.42;;;;;;;30.87;27.97;159288.25;1619224;87;21418;-87
2021/05/11 03:14:33;;;;;;;6.15;3.72;;;;;;;30.88;27.93;159290.91;1619089;88;22523;-87
2021/05/11 03:17:04;;;;;;;7.97;4.30;;;;;;;30.92;27.86;159302.91;1619174;87;21858;-86
2021/05/11 03:19:37;;;;;;;6.72;4.33;;;;;;;31.00;27.78;159324.27;1619428;88;21363;-86
2021/05/11 03:22:09;;;;;;;6.67;3.30;;;;;;;31.04;27.70;159334.95;1619042;88;21342;-86
2021/05/11 03:24:48;;;;;;;8.28;3.70;;;;;;;31.06;27.60;159340.30;1619202;88;21394;-85
2021/05/11 03:27:17;;;;;;;6.53;3.60;;;;;;;31.12;27.48;159356.31;1619098;87;21395;-85
2021/05/11 03:29:49;;;;;;;6.35;4.03;;;;;;;31.13;27.43;159359.00;1619087;87;21398;-85
2021/05/11 03:32:21;;;;;;;7.00;3.87;;;;;;;31.19;27.36;159373.66;1619106;88;21390;-85
2021/05/11 03:34:54;;;;;;;5.87;3.40;;;;;;;31.20;27.37;159377.64;1619036;87;21263;-83
2021/05/11 03:37:26;;;;;;;9.25;3.70;;;;;;;31.26;27.31;159393.61;1624116;87;21370;-84
2021/05/11 03:39:59;;;;;;;5.45;3.50;;;;;;;31.30;27.30;159404.30;1647029;86;21855;-85
2021/05/11 03:42:36;;;;;;;7.80;3.33;;;;;;;31.37;27.25;159422.94;1627968;87;21237;-84
2021/05/11 03:45:08;;;;;;;10.15;4.28;;;;;;;31.46;27.20;159446.98;1616356;87;21382;-84
2021/05/11 03:47:53;;;;;;;4.85;2.95;;;;;;;31.48;27.21;159452.34;1619455;87;21390;-86
2021/05/11 03:50:15;;;;;;;7.65;3.40;;;;;;;31.45;27.20;159444.31;1624832;88;21322;-88
2021/05/11 03:52:48;;;;;;;6.47;2.72;;;;;;;31.50;27.17;159458.98;1610757;89;21310;-85
2021/05/11 03:55:21;;;;;;;5.65;3.12;;;;;;;31.52;27.13;159462.97;1595069;89;21332;-87
2021/05/11 03:57:53;;;;;;;5.08;2.85;;;;;;;31.58;27.04;159480.36;1601776;87;21677;-86
2021/05/11 04:00:25;;;;;;;6.12;2.92;;;;;;;31.66;27.03;159501.69;1590245;89;21206;-86
2021/05/11 04:02:57;;;;;;;4.15;3.00;;;;;;;31.69;27.02;159509.70;1602254;88;21190;-85
2021/05/11 04:05:31;;;;;;;5.15;3.00;;;;;;;31.70;27.01;159511.06;1614800;86;22098;-86
2021/05/11 04:08:04;;;;;;;6.60;3.02;;;;;;;31.73;26.97;159519.03;1594737;88;21233;-88
2021/05/11 04:10:50;;;;;;;5.30;2.92;;;;;;;31.79;26.93;159535.06;1606870;88;21214;-86
2021/05/11 04:13:37;;;;;;;4.62;2.70;;;;;;;31.83;26.90;159545.75;1599688;89;21277;-83
2021/05/11 04:18:45;;;;;;;4.17;2.55;;;;;;;31.88;26.83;159559.06;1600567;89;21774;-85
2021/05/11 04:21:18;;;;;;;5.85;2.83;;;;;;;31.89;26.80;159563.05;1590078;90;21207;-85
2021/05/11 04:23:51;;;;;;;4.97;2.30;;;;;;;31.92;26.75;159571.06;1585612;90;21877;-85
2021/05/11 04:26:23;;;;;;;4.55;2.87;;;;;;;31.94;26.75;159576.41;1619407;86;21891;-86
2021/05/11 04:28:56;;;;;;;5.28;3.08;;;;;;;31.98;26.69;159587.09;1604988;88;21305;-85
2021/05/11 04:31:29;;;;;;;3.62;2.62;;;;;;;32.00;26.71;159592.39;1603114;88;21230;-83
2021/05/11 04:34:02;;;;;;;4.28;2.42;;;;;;;32.05;26.76;159604.44;1593391;89;21253;-84
2021/05/11 04:36:35;;;;;;;4.67;2.40;;;;;;;32.07;26.88;159611.09;1600006;89;21693;-83
2021/05/11 04:39:07;;;;;;;3.30;2.50;;;;;;;32.11;26.96;159620.48;1593383;89;21213;-86
2021/05/11 04:41:47;;;;;;;4.40;3.27;;;;;;;32.14;27.00;159629.81;1594436;88;21847;-84
2021/05/11 04:44:37;;;;;;;3.65;2.45;;;;;;;32.20;26.95;159644.48;1572609;89;21336;-87
2021/05/11 04:47:46;;;;;;;7.00;2.50;;;;;;;32.27;26.90;159665.88;1565646;90;21688;-86
2021/05/11 04:50:29;;;;;;;5.40;2.77;;;;;;;32.32;26.91;159677.88;1600651;88;21277;-90
2021/05/11 04:53:05;;;;;;;4.87;2.45;;;;;;;32.39;26.92;159697.91;1574400;88;21253;-88
2021/05/11 04:55:38;;;;;;;3.77;2.55;;;;;;;32.45;26.86;159712.59;1590461;88;21222;-89
2021/05/11 04:58:12;;;;;;;3.83;2.45;;;;;;;32.49;26.82;159724.59;1573925;89;21776;-88
2021/05/11 05:00:47;;;;;;;5.65;2.40;;;;;;;32.56;26.74;159743.25;1591140;88;21272;-88
2021/05/11 05:03:25;;;;;;;5.15;2.60;;;;;;;32.52;26.68;159732.56;1593326;89;21190;-90
2021/05/11 05:05:54;;;;;;;3.10;2.20;;;;;;;32.60;26.67;159752.64;1593882;88;21633;-88
2021/05/11 05:08:27;;;;;;;4.67;1.77;;;;;;;32.71;26.66;159782.00;1593945;88;21198;-86
2021/05/11 05:10:59;;;;;;;5.10;2.33;;;;;;;32.74;26.57;159790.02;1594898;88;21288;-88
2021/05/11 05:13:32;;;;;;;2.80;1.95;;;;;;;32.83;26.38;159814.03;1592830;88;21511;-85
2021/05/11 05:16:05;;;;;;;3.10;2.17;;;;;;;32.89;26.39;159831.39;1594415;88;21272;-86
2021/05/11 05:18:37;;;;;;;3.45;2.22;;;;;;;32.97;26.35;159851.42;1594873;88;21285;-85
2021/05/11 05:21:12;;;;;;;2.47;1.85;;;;;;;33.05;26.23;159872.78;1594982;87;21321;-85
2021/05/11 05:23:48;;;;;;;3.90;1.92;;;;;;;33.05;26.03;159874.13;1595478;88;21273;-85
2021/05/11 05:26:22;;;;;;;3.75;2.40;;;;;;;33.21;25.95;159916.94;1594846;88;21764;-86
2021/05/11 05:28:54;;;;;;;3.17;2.15;;;;;;;33.29;25.98;159939.59;1595164;88;21256;-86
2021/05/11 05:31:27;;;;;;;4.85;1.75;;;;;;;33.33;25.98;159950.30;1595437;88;21296;-85
2021/05/11 05:34:00;;;;;;;2.60;1.90;;;;;;;33.43;25.99;159977.00;1594770;88;21240;-85
2021/05/11 05:36:32;;;;;;;4.33;2.02;;;;;;;33.52;25.90;160001.02;1595111;88;21236;-88
2021/05/11 05:39:06;;;;;;;3.15;2.00;;;;;;;33.56;25.80;160011.72;1594623;90;21304;-82
2021/05/11 05:41:39;;;;;;;3.40;2.02;;;;;;;33.66;25.67;160038.48;1596438;88;21257;-86
2021/05/11 05:44:12;;;;;;;2.75;1.57;;;;;;;33.78;25.54;160070.55;1595468;88;21306;-85
2021/05/11 05:46:44;;;;;;;4.15;1.55;;;;;;;33.87;25.35;160093.27;1595934;88;21261;-85
2021/05/11 05:49:17;;;;;;;6.08;2.58;;;;;;;33.95;25.28;160115.98;1594653;88;21313;-87
2021/05/11 05:51:51;;;;;;;4.58;2.12;;;;;;;34.08;25.33;160149.38;1599480;88;21217;-90
2021/05/11 05:54:24;;;;;;;2.85;1.67;;;;;;;34.13;25.16;160164.11;1595866;88;21229;-86
2021/05/11 05:56:56;;;;;;;3.87;2.00;;;;;;;34.20;24.89;160184.16;1594273;87;21731;-89
2021/05/11 05:59:30;;;;;;;3.08;1.75;;;;;;;34.26;24.74;160200.17;1594100;88;21213;-91
2021/05/11 06:02:03;;;;;;;2.12;1.60;;;;;;;34.39;24.56;160234.92;1568859;90;21240;-88
2021/05/11 06:04:36;;;;;;;2.55;1.57;;;;;;;34.46;24.39;160252.30;1618519;87;21271;-90
2021/05/11 06:07:09;;;;;;;3.35;1.52;;;;;;;34.50;24.32;160264.31;1619186;87;21280;-90
2021/05/11 06:09:43;;;;;;;3.17;2.08;;;;;;;34.64;24.36;160300.50;1618421;87;21236;-89
2021/05/11 06:12:26;;;;;;;2.27;1.67;;;;;;;34.71;24.34;160319.19;1619414;87;21212;-91
2021/05/11 06:17:13;;;;;;;3.42;1.72;;;;;;;34.76;24.32;160332.58;1618175;87;21280;-87
2021/05/11 06:17:38;;;;;;;2.75;1.35;;;;;;;34.88;24.33;160365.97;1617367;87;21259;-89
2021/05/11 06:20:14;;;;;;;2.60;1.90;;;;;;;35.00;24.31;160398.06;1620589;87;22048;-89
2021/05/11 06:22:47;;;;;;;5.67;1.70;;;;;;;35.16;24.39;160440.92;1618452;87;21236;-89
2021/05/11 06:25:20;;;;;;;2.98;1.62;;;;;;;35.28;24.47;160473.00;1618568;87;21275;-89
2021/05/11 06:28:00;;;;;;;5.78;1.50;;;;;;;35.31;24.53;160481.00;1618041;87;21240;-89
2021/05/11 06:30:33;;;;;;;7.10;1.57;;;;;;;35.43;24.39;160513.09;1618805;87;21433;-89
2021/05/11 06:33:07;;;;;;;2.90;1.40;;;;;;;35.49;23.74;160530.48;1619285;87;21216;-90
2021/05/11 06:35:40;;;;;;;1.57;1.27;;;;;;;35.55;23.19;160545.25;1617727;87;21283;-89
2021/05/11 06:38:20;;;;;;;1.55;1.20;;;;;;;35.63;22.96;160568.00;1618609;87;21217;-84
2021/05/11 06:40:48;;;;;;;3.20;1.10;;;;;;;35.76;22.66;160602.78;1618228;87;21270;-89
2021/05/11 06:43:26;;;;;;;2.17;1.02;;;;;;;35.88;22.31;160633.56;1618555;87;21905;-88
2021/05/11 06:49:03;;;;;;;3.75;1.30;;;;;;;35.94;21.91;160650.91;1618691;87;21276;-90
2021/05/11 06:54:02;;;;;;;3.62;1.12;;;;;;;36.15;21.81;160707.19;1578098;89;22056;-89
2021/05/11 06:56:37;;;;;;;1.70;1.20;;;;;;;36.30;21.82;160748.67;1582947;89;21253;-89
2021/05/11 06:59:09;;;;;;;3.05;1.15;;;;;;;36.39;21.58;160772.75;1582329;90;21217;-90
2021/05/11 07:01:42;;;;;;;3.17;1.40;;;;;;;36.50;21.55;160800.92;1582779;89;21250;-85
2021/05/11 07:04:15;;;;;;;2.22;1.52;;;;;;;36.63;21.80;160835.72;1582921;89;21245;-87
2021/05/11 07:06:47;;;;;;;2.50;1.30;;;;;;;36.75;21.68;160869.16;1583240;89;21277;-86
2021/05/11 07:15:03;;;;;;;1.45;1.25;;;;;;;37.08;21.68;160958.92;1582815;89;20726;-86
2021/05/11 07:17:35;;;;;;;1.87;1.12;;;;;;;37.23;21.57;160997.73;1582790;89;21268;-87
2021/05/11 07:20:09;;;;;;;1.85;1.30;;;;;;;37.33;21.05;161024.50;1582702;89;21407;-85
2021/05/11 07:22:42;;;;;;;1.70;1.12;;;;;;;37.40;20.76;161044.66;1582775;89;21249;-86
2021/05/11 07:25:15;;;;;;;1.95;1.12;;;;;;;37.47;20.50;161063.38;1582856;89;21966;-87
2021/05/11 07:28:01;;;;;;;3.17;1.20;;;;;;;37.57;20.47;161088.84;1582833;89;21886;-86
2021/05/11 07:30:27;;;;;;;2.80;1.32;;;;;;;37.75;20.63;161137.03;1583487;89;21426;-87
2021/05/11 07:32:59;;;;;;;1.35;1.10;;;;;;;37.86;20.69;161167.92;1582957;89;21415;-85
2021/05/11 07:35:31;;;;;;;2.83;1.37;;;;;;;38.14;20.66;161242.91;1582565;89;21919;-87
2021/05/11 07:38:05;;;;;;;4.42;1.12;;;;;;;38.30;20.50;161285.86;1582503;89;21415;-87
2021/05/11 07:40:38;;;;;;;3.92;1.35;;;;;;;38.40;20.48;161314.02;1583390;89;21359;-85
2021/05/11 07:43:12;;;;;;;2.65;1.00;;;;;;;38.51;20.39;161342.12;1582849;89;21414;-86
2021/05/11 07:46:07;;;;;;;2.10;1.00;;;;;;;38.41;20.55;161315.33;1582453;89;21480;-87
2021/05/11 08:19:00;;;;;;;2.12;1.27;;;;;;;39.63;21.48;161643.91;1607329;87;21279;-86
2021/05/11 08:29:46;;;;;;;2.98;1.20;;;;;;;39.96;21.47;161735.16;1556792;91;21271;-87
2021/05/11 08:32:22;;;;;;;2.58;1.50;;;;;;;40.13;21.23;161780.78;1582494;88;21919;-87
2021/05/11 08:34:57;;;;;;;1.52;1.27;;;;;;;40.24;21.15;161810.30;1607242;87;21274;-87
2021/05/11 08:37:29;;;;;;;2.80;1.40;;;;;;;40.30;21.28;161825.06;1606814;89;21311;-87
2021/05/11 08:40:02;;;;;;;4.58;1.37;;;;;;;40.35;21.25;161838.50;1607507;87;21211;-86
2021/05/11 08:42:34;;;;;;;1.52;1.27;;;;;;;40.40;21.29;161853.25;1606690;87;21252;-87
2021/05/11 08:45:10;;;;;;;2.02;1.30;;;;;;;40.55;21.31;161893.52;1619386;87;21338;-89
2021/05/11 08:47:49;;;;;;;2.22;1.22;;;;;;;40.69;21.30;161929.72;1607293;87;21221;-87
2021/05/11 08:50:35;;;;;;;3.60;1.45;;;;;;;40.74;21.28;161944.59;1606322;87;21247;-88
2021/05/11 09:24:54;;;;;;;1.72;1.32;;;;;;;41.78;21.58;162225.23;1532123;91;21243;-88
2021/05/11 09:27:29;;;;;;;3.08;1.57;;;;;;;41.92;21.58;162262.84;1582876;87;21228;-88
2021/05/11 09:30:17;;;;;;;1.67;1.25;;;;;;;42.05;21.54;162299.14;1613727;87;21274;-89
2021/05/11 09:56:41;;;;;;;2.37;1.30;;;;;;;42.69;21.63;162471.16;1582367;89;21455;-88
2021/05/11 09:59:27;;;;;;;1.57;1.25;;;;;;;42.74;21.55;162484.62;1580824;90;21415;-88
2021/05/11 10:42:28;;;;;;;3.75;2.30;;;;;;;43.53;21.42;162698.42;1579048;89;21367;-84
2021/05/11 10:48:33;;;;;;;2.80;1.82;;;;;;;43.73;21.21;162752.19;1508279;92;21352;-85
2021/05/11 10:51:06;;;;;;;4.05;2.10;;;;;;;43.80;21.11;162771.03;1606721;89;21266;-86
2021/05/11 10:54:05;;;;;;;4.95;2.17;;;;;;;43.88;21.04;162793.91;1605396;87;21263;-84
2021/05/11 10:56:40;;;;;;;2.27;1.80;;;;;;;43.90;20.84;162799.28;1580564;89;21771;-85
2021/05/11 10:59:37;;;;;;;4.55;1.72;;;;;;;43.94;20.88;162810.06;1581201;89;21279;-84
2021/05/11 11:02:46;;;;;;;2.30;1.50;;;;;;;43.91;20.71;162801.98;1602423;88;21239;-84
2021/05/11 11:04:50;;;;;;;1.77;1.37;;;;;;;44.06;20.77;162842.33;1584011;88;21899;-85
2021/05/11 11:07:35;;;;;;;1.65;1.40;;;;;;;44.10;20.63;162851.73;1606847;88;21217;-83
2021/05/11 11:10:09;;;;;;;1.57;1.17;;;;;;;44.14;20.63;162862.52;1599721;88;21852;-84
2021/05/11 11:12:42;;;;;;;2.70;1.40;;;;;;;44.18;20.63;162874.61;1567947;90;21788;-84
2021/05/11 11:15:18;;;;;;;1.85;1.30;;;;;;;44.25;20.51;162892.09;1568543;90;21290;-83
2021/05/11 11:17:57;;;;;;;1.85;1.20;;;;;;;44.26;20.48;162894.84;1566285;90;21720;-85
2021/05/11 11:20:34;;;;;;;2.80;1.25;;;;;;;44.27;20.46;162897.53;1569592;90;21288;-83
2021/05/11 11:26:04;;;;;;;2.05;1.20;;;;;;;44.36;20.74;162921.73;1618537;87;22512;-82
2021/05/11 11:28:36;;;;;;;2.80;1.12;;;;;;;44.40;20.77;162933.83;1619507;87;21475;-82
2021/05/11 11:31:29;;;;;;;1.32;1.00;;;;;;;44.46;20.66;162949.94;1619100;86;21267;-85
2021/05/11 11:34:20;;;;;;;3.37;1.22;;;;;;;44.53;20.64;162967.44;1618904;87;21374;-85
2021/05/11 11:37:01;;;;;;;5.85;1.30;;;;;;;44.60;20.69;162987.61;1619238;87;21352;-85
2021/05/11 11:39:39;;;;;;;1.80;1.07;;;;;;;44.66;20.53;163002.47;1618610;87;21263;-84
2021/05/11 11:42:21;;;;;;;1.67;1.20;;;;;;;44.74;20.42;163023.97;1618379;87;21243;-85
2021/05/11 11:44:59;;;;;;;2.83;1.75;;;;;;;44.76;20.54;163030.73;1617165;87;21243;-83
2021/05/11 11:47:41;;;;;;;2.58;1.22;;;;;;;44.83;20.64;163049.55;1618877;87;21322;-83
2021/05/11 11:50:09;;;;;;;3.02;1.50;;;;;;;44.94;20.66;163079.14;1618606;87;21310;-83
2021/05/11 11:55:34;;;;;;;2.98;1.45;;;;;;;45.07;20.47;163115.55;1619712;87;21291;-85
2021/05/11 11:57:56;;;;;;;2.37;1.30;;;;;;;45.16;20.64;163139.75;1617648;86;21247;-85
2021/05/11 12:00:33;;;;;;;2.17;1.10;;;;;;;45.24;20.78;163161.27;1604495;88;21248;-81
2021/05/11 12:03:09;;;;;;;3.65;1.25;;;;;;;45.22;20.99;163155.88;1616254;87;21580;-82
2021/05/11 12:05:48;;;;;;;1.92;1.10;;;;;;;45.22;20.84;163154.56;1616420;87;21270;-82
2021/05/11 12:08:24;;;;;;;4.40;1.50;;;;;;;45.31;20.65;163178.77;1616233;87;21399;-82
2021/05/11 12:11:06;;;;;;;1.67;1.22;;;;;;;45.19;20.73;163146.47;1616130;87;21235;-82
2021/05/11 12:13:40;;;;;;;2.55;1.10;;;;;;;45.28;20.75;163170.67;1616208;87;21263;-83
2021/05/11 12:16:18;;;;;;;4.10;1.10;;;;;;;45.28;20.89;163170.67;1616840;87;21213;-82
2021/05/11 12:19:23;;;;;;;3.10;1.07;;;;;;;45.32;20.94;163182.78;1616193;87;21254;-83
2021/05/11 12:22:01;;;;;;;4.17;1.30;;;;;;;45.35;20.86;163190.86;1616466;87;21216;-82
2021/05/11 12:24:40;;;;;;;4.35;1.12;;;;;;;45.36;20.84;163192.25;1616167;87;21327;-83
2021/05/11 12:27:19;;;;;;;2.25;1.55;;;;;;;45.40;20.86;163204.41;1616033;87;21243;-82
2021/05/11 12:30:06;;;;;;;2.62;1.52;;;;;;;45.51;20.83;163234.00;1616843;87;21211;-81
2021/05/11 12:32:38;;;;;;;2.22;1.60;;;;;;;45.54;20.79;163242.09;1616707;87;21738;-84
2021/05/11 12:35:15;;;;;;;2.98;1.50;;;;;;;45.50;20.68;163231.31;1616093;87;21251;-84
2021/05/11 12:37:57;;;;;;;1.62;1.00;;;;;;;45.53;20.68;163238.03;1616098;87;21822;-81
2021/05/11 12:40:51;;;;;;;2.15;1.20;;;;;;;45.65;20.78;163270.31;1616182;87;21266;-82
2021/05/11 12:43:46;;;;;;;3.52;1.17;;;;;;;45.71;20.72;163286.50;1616559;87;21207;-84
2021/05/11 12:46:22;;;;;;;2.60;1.10;;;;;;;45.72;20.71;163289.19;1616148;87;21279;-85
2021/05/11 12:49:01;;;;;;;1.98;0.95;;;;;;;45.77;20.78;163304.05;1616970;87;21278;-85
2021/05/11 12:51:42;;;;;;;2.02;1.00;;;;;;;45.85;20.74;163325.56;1615827;89;21354;-82
2021/05/11 12:54:36;;;;;;;3.17;0.93;;;;;;;45.86;20.61;163328.28;1615953;87;21318;-82
2021/05/11 12:57:19;;;;;;;1.55;0.90;;;;;;;45.88;20.66;163334.98;1616411;87;21251;-84
2021/05/11 13:00:09;;;;;;;3.45;1.30;;;;;;;45.91;20.66;163343.08;1616421;89;21204;-82
2021/05/11 13:02:47;;;;;;;2.70;0.90;;;;;;;45.89;20.50;163336.36;1615313;87;21211;-82
2021/05/11 13:14:54;;;;;;;3.40;1.10;;;;;;;46.03;20.57;163375.38;1607496;88;21227;-84
2021/05/11 13:17:06;;;;;;;5.47;1.07;;;;;;;46.04;20.44;163378.08;1605993;88;21215;-84
2021/05/11 13:20:02;;;;;;;2.62;0.98;;;;;;;46.04;20.46;163378.08;1607723;88;21779;-82
2021/05/11 13:22:33;;;;;;;1.62;1.20;;;;;;;46.02;20.46;163372.69;1606925;88;21223;-82
2021/05/11 13:33:26;;;;;;;4.72;1.20;;;;;;;46.05;20.51;163380.78;1607445;89;21220;-83
2021/05/11 13:35:54;;;;;;;2.25;0.90;;;;;;;46.00;20.55;163365.97;1607541;88;21393;-82
2021/05/11 13:38:26;;;;;;;2.30;1.10;;;;;;;46.03;20.52;163375.38;1607493;89;21306;-83
2021/05/11 13:40:59;;;;;;;3.95;1.30;;;;;;;46.02;20.51;163372.69;1607585;88;21382;-83
2021/05/11 13:43:31;;;;;;;1.70;1.10;;;;;;;45.98;20.59;163360.58;1607657;89;21358;-82
2021/05/11 13:46:03;;;;;;;1.20;1.00;;;;;;;46.04;20.68;163378.08;1607481;88;21223;-82
2021/05/11 13:48:38;;;;;;;1.42;0.98;;;;;;;46.06;20.75;163382.09;1607557;89;21255;-83
2021/05/11 13:51:19;;;;;;;2.45;1.05;;;;;;;46.05;20.90;163380.78;1607593;89;21283;-82
2021/05/11 13:53:54;;;;;;;2.47;0.90;;;;;;;46.11;20.99;163396.95;1607575;89;21414;-83
2021/05/11 14:02:12;;;;;;;1.50;1.00;;;;;;;46.08;20.84;163388.81;1607791;88;21263;-83
2021/05/11 14:04:33;;;;;;;1.15;0.90;;;;;;;46.17;20.76;163411.77;1607016;88;21240;-82
2021/05/11 14:07:06;;;;;;;3.70;1.20;;;;;;;46.24;20.71;163430.64;1607468;89;21243;-83
2021/05/11 14:09:39;;;;;;;6.87;1.20;;;;;;;46.25;20.88;163434.66;1607653;89;21783;-82
2021/05/11 14:12:12;;;;;;;2.95;1.42;;;;;;;46.25;20.88;163434.66;1607405;88;21231;-82
2021/05/11 14:14:45;;;;;;;4.45;1.55;;;;;;;46.37;20.94;163466.98;1607508;89;21235;-84
2021/05/11 14:17:17;;;;;;;3.40;1.17;;;;;;;46.33;21.07;163456.19;1607714;89;21377;-82
2021/05/11 14:19:51;;;;;;;2.15;1.00;;;;;;;46.32;20.97;163453.48;1607585;89;21233;-82
2021/05/11 14:22:24;;;;;;;5.03;1.27;;;;;;;46.38;20.87;163469.67;1607608;88;21446;-83
2021/05/11 14:24:56;;;;;;;2.08;1.10;;;;;;;46.38;20.86;163468.30;1607466;88;21770;-82
2021/05/11 14:27:29;;;;;;;4.08;1.92;;;;;;;46.42;20.80;163479.09;1607724;88;21834;-83
2021/05/11 14:30:02;;;;;;;4.33;1.30;;;;;;;46.44;20.90;163485.81;1607763;88;21421;-83
2021/05/11 14:32:35;;;;;;;2.35;0.90;;;;;;;46.48;21.04;163496.66;1607643;88;21425;-83
2021/05/11 14:35:08;;;;;;;1.52;0.95;;;;;;;46.54;21.17;163512.78;1607454;88;21560;-83
2021/05/11 14:37:40;;;;;;;4.70;0.98;;;;;;;46.54;21.26;163511.47;1607574;88;21239;-83
2021/05/11 14:40:15;;;;;;;1.90;0.93;;;;;;;46.53;21.12;163510.08;1607729;89;21212;-83
2021/05/11 14:42:48;;;;;;;2.90;1.50;;;;;;;46.53;21.12;163510.08;1607675;88;21410;-84
2021/05/11 14:45:24;;;;;;;1.85;1.30;;;;;;;46.55;20.98;163514.16;1593939;89;21218;-88
2021/05/11 14:47:56;;;;;;;1.87;1.10;;;;;;;46.57;21.00;163520.88;1593429;89;21213;-85
2021/05/11 14:50:29;;;;;;;3.05;0.95;;;;;;;46.64;20.98;163539.75;1571225;91;21279;-87
2021/05/11 14:53:01;;;;;;;3.85;1.37;;;;;;;46.63;20.98;163537.06;1551291;91;21829;-88
2021/05/11 14:55:33;;;;;;;4.72;1.90;;;;;;;46.63;21.11;163535.69;1575282;91;21248;-86
2021/05/11 14:58:06;;;;;;;3.80;1.32;;;;;;;46.59;20.99;163526.28;1580189;89;21256;-86
2021/05/11 15:00:39;;;;;;;3.30;1.20;;;;;;;46.62;20.83;163532.98;1580018;89;21814;-88
2021/05/11 15:03:13;;;;;;;3.55;1.20;;;;;;;46.63;20.93;163537.06;1580442;91;21251;-86
2021/05/11 15:05:46;;;;;;;3.45;1.10;;;;;;;46.63;20.93;163537.06;1579483;89;21299;-91
2021/05/11 15:08:23;;;;;;;3.10;1.47;;;;;;;46.59;21.06;163526.28;1576743;89;21307;-89
2021/05/11 15:10:56;;;;;;;3.83;1.40;;;;;;;46.54;20.75;163511.47;1606620;87;21271;-88
2021/05/11 15:13:28;;;;;;;3.12;1.60;;;;;;;46.54;20.75;163511.47;1606962;87;21298;-88
2021/05/11 15:16:06;;;;;;;7.85;2.02;;;;;;;46.51;20.89;163504.75;1606476;87;21254;-88
2021/05/11 15:18:38;;;;;;;4.58;2.47;;;;;;;46.49;20.87;163497.97;1606685;87;21266;-87
2021/05/11 15:21:12;;;;;;;5.35;1.12;;;;;;;46.44;21.11;163485.81;1606079;88;21813;-92
2021/05/11 15:23:47;;;;;;;3.37;1.32;;;;;;;46.41;20.94;163476.39;1606869;88;21231;-91
2021/05/11 15:26:22;;;;;;;2.17;1.20;;;;;;;46.35;21.21;163461.59;1606082;88;21262;-89
2021/05/11 15:28:55;;;;;;;2.55;1.42;;;;;;;46.34;20.92;163458.89;1606033;87;21267;-89
2021/05/11 15:31:27;;;;;;;3.05;1.20;;;;;;;46.34;20.92;163458.89;1606191;87;21215;-90
2021/05/11 15:34:00;;;;;;;7.42;1.47;;;;;;;46.24;21.28;163430.64;1606206;88;21271;-89
2021/05/11 15:36:34;;;;;;;5.80;1.25;;;;;;;46.24;21.28;163430.64;1604907;87;21232;-89
2021/05/11 15:39:07;;;;;;;4.40;1.47;;;;;;;46.21;21.30;163422.56;1606597;87;21266;-87
2021/05/11 15:41:40;;;;;;;4.35;1.05;;;;;;;46.15;21.30;163406.38;1605624;88;21266;-88
2021/05/11 15:44:12;;;;;;;2.15;1.42;;;;;;;46.16;21.30;163410.44;1606451;87;21258;-87
2021/05/11 15:46:45;;;;;;;3.75;1.07;;;;;;;46.16;21.36;163410.44;1607380;87;21750;-87
2021/05/11 15:49:18;;;;;;;4.95;1.27;;;;;;;46.32;21.36;163453.48;1605928;87;21275;-87